Tyrone, Canada
Current Conditions -  °F | °C
As of 12:00 AM on Thursday 23 Oct 2014 (Local Time) from CYOO Reporting Station
Clear Clear  
Wind Chill: 39°   Ceiling: Unl
Heat Index: 43°   Visibility: 9mi
Dew Point: 39°   Wind: 7mph
Humidity: 87%   Direction: 340°NNW
Pressure: 30.2"   Gusts: NA
Location:  44.02°N, 78.72°W
Report Text: CYOO 230400Z AUTO 34006KT 9SM CLR 06/04 A3020 RMK SLP231
Loading
Personal Weather Stations






























Interactive Weather Map
Tropical Storm Tracking
New forecast layout! Learn more

10-Day Weather Forecast

Advertisements
Track Severe Weather on mobile